Terminal Aerodrome Forecast
Issued by NWS

Current Version | Previous Version | Text Only | Print | Product List | Glossary On
Versions: 1 2 3 4 5 6 7 8 9 10 11 12 13 14 15
630
FTUS44 KBMX 062337
TAFMGM
TAF
KMGM 062337Z 0700/0724 35003KT P6SM SKC
     FM071700 30008G18KT P6SM SCT250=

USA.gov is the U.S. government's official web portal to all federal, state and local government web resources and services.